Time;durP1;ratioP1;P1;durP2;ratioP2;P2;SDS_P1;SDS_P2;PMS_P1;PMS_P2;Temp;Humidity;BMP_temperature;BMP_pressure;BME280_temperature;BME280_humidity;BME280_pressure;Samples;Min_cycle;Max_cycle;Signal;HPM_P1;HPM_P2
2023/08/08 00:00:30;;;;;;;11.50;3.60;;;;;;;;;;5048287;28;20467;-80
2023/08/08 00:02:56;;;;;;;4.50;2.60;;;;;;;;;;5046872;28;20479;-80
2023/08/08 00:05:23;;;;;;;6.10;3.03;;;;;;;;;;5045831;28;20438;-80
2023/08/08 00:07:49;;;;;;;7.33;2.40;;;;;;;;;;5043413;28;20491;-81
2023/08/08 00:10:16;;;;;;;6.13;2.87;;;;;;;;;;5044037;28;20434;-80
2023/08/08 00:12:42;;;;;;;5.07;3.17;;;;;;;;;;5044088;28;20998;-80
2023/08/08 00:15:10;;;;;;;3.63;2.77;;;;;;;;;;5043561;28;20774;-80
2023/08/08 00:17:37;;;;;;;8.70;3.60;;;;;;;;;;5043262;28;20479;-80
2023/08/08 00:20:03;;;;;;;4.70;3.37;;;;;;;;;;5045308;28;20444;-80
2023/08/08 00:22:30;;;;;;;7.93;3.80;;;;;;;;;;5043646;28;20872;-80
2023/08/08 00:24:57;;;;;;;4.90;3.13;;;;;;;;;;5043086;28;20467;-80
2023/08/08 00:27:23;;;;;;;5.30;3.00;;;;;;;;;;5044327;28;20448;-80
2023/08/08 00:29:50;;;;;;;9.10;2.90;;;;;;;;;;5043951;28;20437;-81
2023/08/08 00:32:18;;;;;;;6.90;3.60;;;;;;;;;;5043112;28;20531;-80
2023/08/08 00:34:44;;;;;;;5.03;3.50;;;;;;;;;;5045170;28;20463;-80
2023/08/08 00:37:12;;;;;;;5.17;3.27;;;;;;;;;;5042663;28;20848;-80
2023/08/08 00:39:39;;;;;;;6.17;3.60;;;;;;;;;;5041761;28;20430;-80
2023/08/08 00:42:05;;;;;;;3.60;3.00;;;;;;;;;;5044140;28;20804;-80
2023/08/08 00:44:32;;;;;;;4.40;3.60;;;;;;;;;;5046481;28;20486;-81
2023/08/08 00:46:58;;;;;;;4.23;2.93;;;;;;;;;;5043492;28;20471;-80
2023/08/08 00:49:26;;;;;;;4.77;2.87;;;;;;;;;;5042874;28;20434;-80
2023/08/08 00:51:52;;;;;;;5.00;3.23;;;;;;;;;;5044071;28;20441;-80
2023/08/08 00:54:19;;;;;;;6.23;3.50;;;;;;;;;;5043465;28;20442;-80
2023/08/08 00:56:46;;;;;;;6.50;3.60;;;;;;;;;;5043765;28;20990;-80
2023/08/08 00:59:12;;;;;;;5.90;4.50;;;;;;;;;;5043301;28;20536;-80
2023/08/08 01:01:39;;;;;;;5.43;3.77;;;;;;;;;;5043852;28;20854;-81
2023/08/08 01:04:06;;;;;;;9.53;4.23;;;;;;;;;;5046341;28;20559;-80
2023/08/08 01:06:38;;;;;;;6.10;3.13;;;;;;;;;;5045604;28;20543;-81
2023/08/08 01:09:08;;;;;;;6.00;3.97;;;;;;;;;;5043273;28;20470;-80
2023/08/08 01:11:35;;;;;;;5.07;3.57;;;;;;;;;;5042509;28;20477;-82
2023/08/08 01:14:04;;;;;;;7.93;3.40;;;;;;;;;;5043875;28;20471;-80
2023/08/08 01:16:30;;;;;;;7.80;3.30;;;;;;;;;;5044193;28;20460;-81
2023/08/08 01:18:58;;;;;;;11.57;4.17;;;;;;;;;;5043364;28;20456;-81
2023/08/08 01:21:25;;;;;;;6.03;3.57;;;;;;;;;;5043337;28;20479;-80
2023/08/08 01:23:57;;;;;;;6.67;4.20;;;;;;;;;;5043203;28;20468;-81
2023/08/08 01:26:25;;;;;;;5.07;3.60;;;;;;;;;;5045583;28;20441;-80
2023/08/08 01:28:53;;;;;;;6.50;4.23;;;;;;;;;;5042276;28;20472;-80
2023/08/08 01:31:20;;;;;;;4.20;3.63;;;;;;;;;;5042101;28;20456;-80
2023/08/08 01:33:46;;;;;;;7.37;4.20;;;;;;;;;;5044445;28;20488;-80
2023/08/08 01:36:14;;;;;;;4.73;3.43;;;;;;;;;;5044868;28;20463;-80
2023/08/08 01:38:42;;;;;;;7.73;4.00;;;;;;;;;;5041294;28;21028;-80
2023/08/08 01:41:09;;;;;;;9.07;3.73;;;;;;;;;;5045335;28;20431;-80
2023/08/08 01:43:38;;;;;;;9.27;4.60;;;;;;;;;;5042998;28;20468;-80
2023/08/08 01:46:04;;;;;;;8.00;3.83;;;;;;;;;;5044275;28;20442;-80
2023/08/08 01:48:31;;;;;;;4.33;3.93;;;;;;;;;;5044759;28;20463;-80
2023/08/08 01:50:58;;;;;;;8.37;3.80;;;;;;;;;;5042682;28;20426;-80
2023/08/08 01:53:24;;;;;;;7.30;4.20;;;;;;;;;;5042058;28;20992;-79
2023/08/08 01:55:52;;;;;;;5.60;4.23;;;;;;;;;;5043768;28;20471;-80
2023/08/08 01:58:18;;;;;;;7.53;4.10;;;;;;;;;;5043643;28;20862;-80
2023/08/08 02:00:46;;;;;;;6.10;3.57;;;;;;;;;;5043614;28;20446;-80
2023/08/08 02:03:13;;;;;;;5.80;3.57;;;;;;;;;;5043992;28;20508;-80
2023/08/08 02:05:39;;;;;;;5.20;4.27;;;;;;;;;;5043238;28;20434;-80
2023/08/08 02:08:07;;;;;;;6.47;3.93;;;;;;;;;;5041086;28;20458;-80
2023/08/08 02:10:33;;;;;;;6.63;3.87;;;;;;;;;;5042497;28;20446;-80
2023/08/08 02:13:00;;;;;;;7.03;3.80;;;;;;;;;;5043284;28;20480;-80
2023/08/08 02:15:26;;;;;;;5.57;3.40;;;;;;;;;;5042707;28;20441;-80
2023/08/08 02:17:54;;;;;;;4.13;3.73;;;;;;;;;;5044503;28;20996;-80
2023/08/08 02:20:20;;;;;;;9.80;4.30;;;;;;;;;;5043223;28;20421;-81
2023/08/08 02:22:47;;;;;;;4.80;3.80;;;;;;;;;;5042382;28;20483;-80
2023/08/08 02:25:13;;;;;;;6.63;4.93;;;;;;;;;;5042480;28;20446;-80
2023/08/08 02:27:40;;;;;;;11.50;5.50;;;;;;;;;;5042215;28;20455;-79
2023/08/08 02:30:07;;;;;;;5.87;4.60;;;;;;;;;;5039284;28;20449;-79
2023/08/08 02:32:34;;;;;;;6.07;4.33;;;;;;;;;;5041140;28;20830;-80
2023/08/08 02:35:02;;;;;;;5.53;4.50;;;;;;;;;;5040394;28;20430;-80
2023/08/08 02:37:28;;;;;;;8.73;4.37;;;;;;;;;;5041705;28;20461;-80
2023/08/08 02:39:55;;;;;;;9.43;4.90;;;;;;;;;;5044322;28;20453;-79
2023/08/08 02:42:21;;;;;;;8.17;5.57;;;;;;;;;;5042871;28;20483;-80
2023/08/08 02:44:48;;;;;;;9.30;5.10;;;;;;;;;;5039211;28;20506;-80
2023/08/08 02:47:15;;;;;;;5.80;5.23;;;;;;;;;;5040733;28;20438;-80
2023/08/08 02:49:41;;;;;;;4.97;4.47;;;;;;;;;;5044427;28;20956;-80
2023/08/08 02:52:09;;;;;;;6.53;4.70;;;;;;;;;;5045440;28;20442;-80
2023/08/08 02:54:35;;;;;;;9.67;5.10;;;;;;;;;;5044768;28;20434;-80
2023/08/08 02:57:02;;;;;;;7.33;5.03;;;;;;;;;;5042235;28;21001;-80
2023/08/08 02:59:30;;;;;;;7.70;5.67;;;;;;;;;;5041772;28;20459;-80
2023/08/08 03:01:56;;;;;;;7.00;5.10;;;;;;;;;;5025865;28;20498;-80
2023/08/08 03:04:23;;;;;;;5.50;4.90;;;;;;;;;;5041796;28;20531;-80
2023/08/08 03:06:49;;;;;;;8.47;4.90;;;;;;;;;;5042940;28;20460;-80
2023/08/08 03:09:17;;;;;;;5.07;4.50;;;;;;;;;;5039836;28;20449;-80
2023/08/08 03:11:43;;;;;;;9.73;5.80;;;;;;;;;;5042958;28;20455;-80
2023/08/08 03:14:10;;;;;;;7.17;5.20;;;;;;;;;;5043416;28;20477;-80
2023/08/08 03:16:36;;;;;;;7.13;5.93;;;;;;;;;;5042225;28;20463;-80
2023/08/08 03:19:02;;;;;;;11.13;6.67;;;;;;;;;;5042925;28;20962;-80
2023/08/08 03:21:29;;;;;;;11.00;5.83;;;;;;;;;;5041544;28;21075;-80
2023/08/08 03:23:55;;;;;;;7.33;5.40;;;;;;;;;;5041046;28;20482;-80
2023/08/08 03:26:23;;;;;;;9.53;6.50;;;;;;;;;;5041304;28;20459;-80
2023/08/08 03:28:50;;;;;;;7.30;6.13;;;;;;;;;;5044133;28;20458;-80
2023/08/08 03:31:16;;;;;;;10.03;6.63;;;;;;;;;;5042903;28;20430;-80
2023/08/08 03:33:43;;;;;;;10.63;5.70;;;;;;;;;;5041378;28;20689;-80
2023/08/08 03:36:10;;;;;;;10.67;6.43;;;;;;;;;;5043333;28;20463;-80
2023/08/08 03:38:37;;;;;;;8.70;6.53;;;;;;;;;;5043420;28;20482;-80
2023/08/08 03:41:04;;;;;;;9.97;6.00;;;;;;;;;;5041985;28;20495;-80
2023/08/08 03:43:32;;;;;;;7.57;5.77;;;;;;;;;;5042843;28;20446;-80
2023/08/08 03:45:58;;;;;;;10.13;6.50;;;;;;;;;;5044546;28;20444;-80
2023/08/08 03:48:24;;;;;;;7.93;6.17;;;;;;;;;;5046139;28;20442;-80
2023/08/08 03:50:51;;;;;;;9.57;6.70;;;;;;;;;;5044519;28;20476;-80
2023/08/08 03:53:17;;;;;;;12.67;6.97;;;;;;;;;;5046278;28;20465;-80
2023/08/08 03:55:43;;;;;;;7.43;6.43;;;;;;;;;;5045643;28;20435;-80
2023/08/08 03:58:10;;;;;;;10.50;6.50;;;;;;;;;;5046822;28;20453;-80
2023/08/08 04:00:39;;;;;;;8.80;6.13;;;;;;;;;;5042577;28;20430;-80
2023/08/08 04:03:07;;;;;;;10.17;6.47;;;;;;;;;;5045823;28;21314;-80
2023/08/08 04:05:33;;;;;;;9.00;5.73;;;;;;;;;;5044827;28;20954;-80
2023/08/08 04:07:59;;;;;;;9.80;6.30;;;;;;;;;;5045651;28;20454;-80
2023/08/08 04:10:26;;;;;;;11.27;6.27;;;;;;;;;;5046559;28;20438;-80
2023/08/08 04:12:55;;;;;;;12.73;6.30;;;;;;;;;;5045680;28;20480;-80
2023/08/08 04:15:22;;;;;;;9.60;7.20;;;;;;;;;;5045513;28;20539;-80
2023/08/08 04:17:50;;;;;;;10.67;7.07;;;;;;;;;;5045867;28;20975;-80
2023/08/08 04:20:16;;;;;;;10.23;7.77;;;;;;;;;;5046398;28;20457;-80
2023/08/08 04:22:43;;;;;;;9.40;6.57;;;;;;;;;;5044715;28;20554;-80
2023/08/08 04:25:09;;;;;;;8.33;6.40;;;;;;;;;;5044949;28;20440;-80
2023/08/08 04:27:36;;;;;;;8.23;6.57;;;;;;;;;;5044223;28;20455;-79
2023/08/08 04:30:04;;;;;;;12.07;6.90;;;;;;;;;;5043989;28;20435;-80
2023/08/08 04:32:30;;;;;;;12.33;6.10;;;;;;;;;;5042907;28;20543;-80
2023/08/08 04:34:58;;;;;;;9.40;6.00;;;;;;;;;;5044327;28;20465;-80
2023/08/08 04:37:27;;;;;;;10.70;6.50;;;;;;;;;;5043990;28;20836;-80
2023/08/08 04:39:54;;;;;;;10.10;7.50;;;;;;;;;;5045054;28;20448;-80
2023/08/08 04:42:20;;;;;;;8.40;6.67;;;;;;;;;;5041293;28;20476;-80
2023/08/08 04:44:46;;;;;;;10.70;7.90;;;;;;;;;;5044332;28;20462;-80
2023/08/08 04:47:13;;;;;;;12.83;7.10;;;;;;;;;;5043557;28;20447;-80
2023/08/08 04:49:40;;;;;;;8.50;6.10;;;;;;;;;;5047818;28;20431;-80
2023/08/08 04:52:08;;;;;;;8.60;6.50;;;;;;;;;;5041855;28;20446;-81
2023/08/08 04:54:35;;;;;;;9.10;6.50;;;;;;;;;;5045142;28;20838;-80
2023/08/08 04:57:01;;;;;;;9.97;6.60;;;;;;;;;;5043336;28;20461;-81
2023/08/08 04:59:27;;;;;;;10.83;7.23;;;;;;;;;;5044838;28;20556;-81
2023/08/08 05:01:54;;;;;;;11.93;6.53;;;;;;;;;;5043972;28;20847;-81
2023/08/08 05:04:21;;;;;;;8.90;6.77;;;;;;;;;;5046624;28;21005;-81
2023/08/08 05:06:47;;;;;;;9.17;7.00;;;;;;;;;;5043232;28;20813;-81
2023/08/08 05:09:15;;;;;;;12.47;6.53;;;;;;;;;;5042424;28;20452;-80
2023/08/08 05:11:42;;;;;;;7.40;6.27;;;;;;;;;;5046901;28;20473;-80
2023/08/08 05:14:08;;;;;;;9.47;6.10;;;;;;;;;;5043073;28;20462;-81
2023/08/08 05:16:35;;;;;;;11.47;6.27;;;;;;;;;;5042333;28;20456;-80
2023/08/08 05:19:02;;;;;;;14.33;6.50;;;;;;;;;;5043330;28;20534;-80
2023/08/08 05:21:28;;;;;;;7.53;6.03;;;;;;;;;;5042670;28;20460;-80
2023/08/08 05:23:54;;;;;;;9.47;6.03;;;;;;;;;;5044471;28;20487;-80
2023/08/08 05:26:22;;;;;;;8.40;6.13;;;;;;;;;;5044977;28;20462;-80
2023/08/08 05:28:49;;;;;;;8.37;5.90;;;;;;;;;;5044135;28;20451;-80
2023/08/08 05:31:15;;;;;;;7.57;5.50;;;;;;;;;;5044408;28;20471;-80
2023/08/08 05:33:42;;;;;;;9.80;6.40;;;;;;;;;;5043396;28;20451;-80
2023/08/08 05:36:08;;;;;;;12.10;6.47;;;;;;;;;;5043899;28;20486;-80
2023/08/08 05:38:34;;;;;;;10.77;6.47;;;;;;;;;;5042972;28;20469;-80
2023/08/08 05:41:01;;;;;;;8.73;5.33;;;;;;;;;;5042746;28;20433;-80
2023/08/08 05:43:29;;;;;;;7.70;5.63;;;;;;;;;;5041664;28;20451;-80
2023/08/08 05:45:55;;;;;;;12.00;5.30;;;;;;;;;;5042090;28;20415;-80
2023/08/08 05:48:22;;;;;;;8.00;5.77;;;;;;;;;;5043971;28;20472;-80
2023/08/08 05:50:48;;;;;;;6.60;4.57;;;;;;;;;;5040423;28;20958;-80
2023/08/08 05:53:14;;;;;;;9.27;5.10;;;;;;;;;;5043219;28;20473;-80
2023/08/08 05:55:41;;;;;;;8.67;5.10;;;;;;;;;;5041938;28;20940;-80
2023/08/08 05:58:08;;;;;;;10.10;6.00;;;;;;;;;;5040836;28;20443;-80
2023/08/08 06:00:35;;;;;;;6.30;4.73;;;;;;;;;;5043984;28;20436;-80
2023/08/08 06:03:02;;;;;;;6.13;4.00;;;;;;;;;;5043112;28;20462;-80
2023/08/08 06:05:29;;;;;;;10.00;5.27;;;;;;;;;;5042957;28;20414;-80
2023/08/08 06:07:57;;;;;;;8.97;5.00;;;;;;;;;;5042860;28;20510;-80
2023/08/08 06:10:25;;;;;;;7.13;5.33;;;;;;;;;;5043878;28;20419;-80
2023/08/08 06:12:52;;;;;;;7.43;5.10;;;;;;;;;;5044195;28;20447;-80
2023/08/08 06:15:18;;;;;;;8.40;5.57;;;;;;;;;;5043199;28;20947;-80
2023/08/08 06:17:46;;;;;;;8.37;4.57;;;;;;;;;;5043175;28;20465;-80
2023/08/08 06:20:12;;;;;;;7.73;4.80;;;;;;;;;;5043254;28;20415;-80
2023/08/08 06:22:39;;;;;;;5.50;3.67;;;;;;;;;;5043310;28;20979;-79
2023/08/08 06:25:06;;;;;;;4.63;3.63;;;;;;;;;;5044582;28;20459;-80
2023/08/08 06:27:33;;;;;;;9.63;4.07;;;;;;;;;;5042480;28;20820;-79
2023/08/08 06:29:59;;;;;;;5.77;3.70;;;;;;;;;;5043510;28;20448;-80
2023/08/08 06:32:25;;;;;;;7.40;3.77;;;;;;;;;;5046286;28;20476;-81
2023/08/08 06:34:53;;;;;;;6.27;4.03;;;;;;;;;;5041609;28;20452;-80
2023/08/08 06:37:20;;;;;;;8.03;3.67;;;;;;;;;;5056173;28;20472;-80
2023/08/08 06:39:46;;;;;;;4.33;2.90;;;;;;;;;;5042621;28;20543;-81
2023/08/08 06:42:13;;;;;;;7.50;3.90;;;;;;;;;;5042218;28;20469;-80
2023/08/08 06:44:42;;;;;;;10.10;3.43;;;;;;;;;;5043231;28;20487;-79
2023/08/08 06:47:08;;;;;;;5.47;3.00;;;;;;;;;;5043457;28;20838;-81
2023/08/08 06:49:35;;;;;;;6.93;3.60;;;;;;;;;;5039546;28;20456;-80
2023/08/08 06:52:03;;;;;;;7.63;3.30;;;;;;;;;;5041943;28;20472;-80
2023/08/08 06:54:29;;;;;;;5.97;3.13;;;;;;;;;;5042329;28;20461;-80
2023/08/08 06:56:57;;;;;;;5.90;2.37;;;;;;;;;;5040527;28;20475;-80
2023/08/08 06:59:24;;;;;;;3.73;2.40;;;;;;;;;;5042348;28;20456;-80
2023/08/08 07:01:51;;;;;;;5.80;3.20;;;;;;;;;;5040904;28;20467;-80
2023/08/08 07:04:18;;;;;;;4.87;3.47;;;;;;;;;;5043211;28;20509;-79
2023/08/08 07:06:44;;;;;;;4.90;2.37;;;;;;;;;;5041957;28;20459;-80
2023/08/08 07:09:12;;;;;;;9.93;2.80;;;;;;;;;;5042297;28;20478;-80
2023/08/08 07:11:39;;;;;;;8.37;3.60;;;;;;;;;;5056176;28;20467;-80
2023/08/08 07:14:07;;;;;;;3.40;2.50;;;;;;;;;;5042316;28;20459;-80
2023/08/08 07:16:33;;;;;;;6.80;2.33;;;;;;;;;;5042969;28;20470;-81
2023/08/08 07:19:00;;;;;;;4.20;2.20;;;;;;;;;;5043311;28;20440;-80
2023/08/08 07:21:27;;;;;;;5.27;2.00;;;;;;;;;;5045624;28;20440;-81
2023/08/08 07:23:53;;;;;;;7.00;2.33;;;;;;;;;;5046962;28;20518;-80
2023/08/08 07:26:22;;;;;;;9.03;3.20;;;;;;;;;;5046347;28;20467;-80
2023/08/08 07:28:48;;;;;;;4.10;2.00;;;;;;;;;;5045664;28;20877;-80
2023/08/08 07:31:14;;;;;;;5.33;2.23;;;;;;;;;;5045726;28;20460;-80
2023/08/08 07:33:41;;;;;;;5.67;2.67;;;;;;;;;;5045530;28;20468;-81
2023/08/08 07:36:08;;;;;;;2.20;1.60;;;;;;;;;;5038702;28;20439;-80
2023/08/08 07:38:35;;;;;;;4.83;2.00;;;;;;;;;;5047667;28;20455;-80
2023/08/08 07:41:01;;;;;;;5.53;2.37;;;;;;;;;;5043842;28;20467;-80
2023/08/08 07:43:29;;;;;;;2.63;1.50;;;;;;;;;;5044334;28;20438;-81
2023/08/08 07:45:55;;;;;;;3.27;1.70;;;;;;;;;;5047241;28;20448;-80
2023/08/08 07:48:22;;;;;;;2.30;1.50;;;;;;;;;;5046242;28;20442;-80
2023/08/08 07:50:48;;;;;;;5.30;1.90;;;;;;;;;;5046783;28;20466;-80
2023/08/08 07:53:14;;;;;;;3.77;1.70;;;;;;;;;;5044561;28;20476;-80
2023/08/08 07:55:40;;;;;;;3.23;1.97;;;;;;;;;;5044400;28;20436;-79
2023/08/08 07:58:07;;;;;;;2.13;1.70;;;;;;;;;;5046558;28;20451;-80
2023/08/08 08:00:35;;;;;;;3.53;2.03;;;;;;;;;;5043361;28;20469;-80
2023/08/08 08:03:03;;;;;;;2.20;2.00;;;;;;;;;;5047052;28;20468;-80
2023/08/08 08:05:31;;;;;;;6.53;1.87;;;;;;;;;;5045483;28;20492;-80
2023/08/08 08:07:58;;;;;;;5.67;2.13;;;;;;;;;;5047084;28;20533;-80
2023/08/08 08:10:24;;;;;;;6.77;3.00;;;;;;;;;;5047938;28;20942;-80
2023/08/08 08:12:57;;;;;;;4.20;2.33;;;;;;;;;;5043779;28;21001;-80
2023/08/08 08:15:23;;;;;;;9.33;2.60;;;;;;;;;;5044302;28;20499;-80
2023/08/08 08:17:51;;;;;;;9.50;2.83;;;;;;;;;;5046227;28;21005;-81
2023/08/08 08:20:18;;;;;;;7.60;2.67;;;;;;;;;;5045863;28;20487;-81
2023/08/08 08:22:45;;;;;;;6.43;2.80;;;;;;;;;;5043625;28;20533;-79
2023/08/08 08:25:12;;;;;;;2.93;2.13;;;;;;;;;;5045230;28;20494;-80
2023/08/08 08:27:39;;;;;;;4.57;2.10;;;;;;;;;;5044902;28;20460;-80
2023/08/08 08:30:06;;;;;;;6.03;2.30;;;;;;;;;;5045397;28;20926;-80
2023/08/08 08:32:33;;;;;;;2.30;2.10;;;;;;;;;;5044034;28;20999;-80
2023/08/08 08:35:02;;;;;;;7.97;2.07;;;;;;;;;;5044480;28;20947;-80
2023/08/08 08:37:28;;;;;;;6.43;1.97;;;;;;;;;;5043130;28;20468;-80
2023/08/08 08:39:55;;;;;;;3.63;1.70;;;;;;;;;;5045469;28;20474;-80
2023/08/08 08:42:22;;;;;;;7.63;2.63;;;;;;;;;;5042822;28;20475;-81
2023/08/08 08:44:49;;;;;;;2.53;1.30;;;;;;;;;;5042199;28;20858;-80
2023/08/08 08:47:18;;;;;;;5.70;2.03;;;;;;;;;;5041391;28;20475;-81
2023/08/08 08:49:46;;;;;;;5.60;1.90;;;;;;;;;;5042984;28;20973;-80
2023/08/08 08:52:14;;;;;;;4.80;1.67;;;;;;;;;;5046170;28;20499;-80
2023/08/08 08:54:40;;;;;;;3.07;1.80;;;;;;;;;;5041786;28;20540;-80
2023/08/08 08:57:07;;;;;;;4.60;1.70;;;;;;;;;;5042650;28;20851;-81
2023/08/08 08:59:33;;;;;;;9.77;2.03;;;;;;;;;;5042118;28;20444;-80
2023/08/08 09:02:00;;;;;;;2.93;1.60;;;;;;;;;;5045246;28;20468;-80
2023/08/08 09:04:31;;;;;;;2.70;1.37;;;;;;;;;;5043059;28;20480;-81
2023/08/08 09:06:58;;;;;;;4.43;1.67;;;;;;;;;;5047137;28;20468;-80
2023/08/08 09:09:26;;;;;;;3.60;1.33;;;;;;;;;;5039183;28;20449;-81
2023/08/08 09:11:54;;;;;;;7.70;1.83;;;;;;;;;;5047368;28;20467;-81
2023/08/08 09:14:21;;;;;;;3.73;1.50;;;;;;;;;;5042329;28;20463;-80
2023/08/08 09:16:48;;;;;;;2.33;1.33;;;;;;;;;;5043975;28;20473;-81
2023/08/08 09:19:14;;;;;;;6.03;1.40;;;;;;;;;;5042971;28;20475;-80
2023/08/08 09:21:41;;;;;;;5.00;1.53;;;;;;;;;;5043802;28;20483;-81
2023/08/08 09:24:08;;;;;;;1.50;1.10;;;;;;;;;;5045617;28;20534;-81
2023/08/08 09:26:35;;;;;;;4.67;2.23;;;;;;;;;;5042424;28;20461;-80
2023/08/08 09:29:02;;;;;;;1.53;1.20;;;;;;;;;;5040682;28;20448;-81
2023/08/08 09:31:30;;;;;;;5.57;1.37;;;;;;;;;;5040960;28;20464;-80
2023/08/08 09:33:57;;;;;;;8.23;1.93;;;;;;;;;;5041969;28;20449;-81
2023/08/08 09:36:23;;;;;;;3.30;1.23;;;;;;;;;;5045036;28;20444;-81
2023/08/08 09:38:50;;;;;;;4.53;1.37;;;;;;;;;;5045063;28;20456;-81
2023/08/08 09:41:16;;;;;;;6.10;1.77;;;;;;;;;;5040238;28;20460;-80
2023/08/08 09:43:45;;;;;;;5.27;2.10;;;;;;;;;;5041656;28;20476;-80
2023/08/08 09:46:11;;;;;;;2.70;1.60;;;;;;;;;;5044988;28;20479;-81
2023/08/08 09:48:40;;;;;;;3.70;1.30;;;;;;;;;;5044643;28;20464;-81
2023/08/08 09:51:07;;;;;;;5.73;1.67;;;;;;;;;;5042590;28;20452;-81
2023/08/08 09:53:33;;;;;;;3.13;1.17;;;;;;;;;;5045239;28;20480;-80
2023/08/08 09:56:02;;;;;;;5.07;1.70;;;;;;;;;;5041653;28;20436;-80
2023/08/08 09:58:28;;;;;;;7.07;1.93;;;;;;;;;;5043977;28;20454;-80
2023/08/08 10:00:56;;;;;;;2.23;1.03;;;;;;;;;;5036481;28;20845;-80
2023/08/08 10:03:23;;;;;;;5.97;1.60;;;;;;;;;;5045168;28;20478;-80
2023/08/08 10:05:49;;;;;;;4.77;1.53;;;;;;;;;;5042572;28;20491;-80
2023/08/08 10:08:16;;;;;;;2.93;1.30;;;;;;;;;;5042586;28;21104;-80
2023/08/08 10:10:44;;;;;;;4.40;1.60;;;;;;;;;;5041753;28;20518;-80
2023/08/08 10:13:11;;;;;;;5.30;1.30;;;;;;;;;;5039331;28;20469;-80
2023/08/08 10:15:37;;;;;;;5.30;1.60;;;;;;;;;;5042384;28;20436;-80
2023/08/08 10:18:07;;;;;;;4.70;1.60;;;;;;;;;;5044546;28;20468;-80
2023/08/08 10:20:33;;;;;;;3.63;1.37;;;;;;;;;;5040616;28;20849;-80
2023/08/08 10:23:02;;;;;;;9.03;1.70;;;;;;;;;;5043156;28;20476;-80
2023/08/08 10:25:32;;;;;;;1.53;1.13;;;;;;;;;;5043414;28;20488;-79
2023/08/08 10:28:07;;;;;;;4.13;1.50;;;;;;;;;;5042552;28;20576;-81
2023/08/08 10:30:43;;;;;;;2.90;1.20;;;;;;;;;;5044063;28;20463;-81
2023/08/08 10:33:16;;;;;;;1.53;1.00;;;;;;;;;;5040628;28;20479;-80
2023/08/08 10:35:50;;;;;;;2.97;1.43;;;;;;;;;;5043814;28;20834;-80
2023/08/08 10:38:17;;;;;;;1.50;1.10;;;;;;;;;;5042979;28;20467;-81
2023/08/08 10:40:45;;;;;;;5.13;1.60;;;;;;;;;;5041487;28;20856;-80
2023/08/08 10:43:12;;;;;;;3.00;1.43;;;;;;;;;;5040534;28;20511;-81
2023/08/08 10:45:42;;;;;;;1.77;0.97;;;;;;;;;;5043626;28;20549;-80
2023/08/08 10:48:09;;;;;;;6.47;1.23;;;;;;;;;;5044016;28;20471;-81
2023/08/08 10:50:40;;;;;;;2.23;0.90;;;;;;;;;;5043027;28;20454;-81
2023/08/08 10:53:09;;;;;;;1.53;1.43;;;;;;;;;;5044697;28;20480;-81
2023/08/08 10:55:36;;;;;;;5.87;1.13;;;;;;;;;;5045864;28;20837;-81
2023/08/08 10:58:05;;;;;;;2.30;1.00;;;;;;;;;;5045719;28;20853;-81
2023/08/08 11:00:32;;;;;;;4.77;1.20;;;;;;;;;;5047496;28;20456;-81
2023/08/08 11:02:59;;;;;;;3.47;1.07;;;;;;;;;;5047033;28;20467;-81
2023/08/08 11:05:26;;;;;;;4.63;1.23;;;;;;;;;;5045593;28;20480;-81
2023/08/08 11:07:55;;;;;;;5.13;1.73;;;;;;;;;;5045065;28;20530;-80
2023/08/08 11:10:23;;;;;;;3.87;1.23;;;;;;;;;;5047662;28;20455;-80
2023/08/08 11:12:57;;;;;;;6.00;1.20;;;;;;;;;;5047375;28;20491;-80
2023/08/08 11:15:23;;;;;;;1.00;0.90;;;;;;;;;;5048710;28;20992;-81
2023/08/08 11:17:49;;;;;;;2.97;1.00;;;;;;;;;;5046429;28;20483;-81
2023/08/08 11:20:16;;;;;;;1.43;0.90;;;;;;;;;;5046171;28;20463;-80
2023/08/08 11:22:43;;;;;;;2.50;0.90;;;;;;;;;;5046269;28;21042;-80
2023/08/08 11:25:11;;;;;;;0.80;0.80;;;;;;;;;;5044412;28;20485;-80
2023/08/08 11:27:37;;;;;;;3.60;1.27;;;;;;;;;;5046781;28;20443;-80
2023/08/08 11:30:04;;;;;;;6.07;1.10;;;;;;;;;;5046739;28;20462;-81
2023/08/08 11:32:30;;;;;;;1.37;1.20;;;;;;;;;;5046439;28;20468;-81
2023/08/08 11:34:57;;;;;;;3.70;1.37;;;;;;;;;;5047330;28;20434;-81
2023/08/08 11:37:23;;;;;;;2.83;1.30;;;;;;;;;;5048605;28;20482;-81
2023/08/08 11:39:50;;;;;;;6.23;1.60;;;;;;;;;;5045117;28;20467;-81
2023/08/08 11:42:18;;;;;;;4.90;2.03;;;;;;;;;;5045593;28;20476;-81
2023/08/08 11:44:44;;;;;;;6.27;1.60;;;;;;;;;;5045420;28;20431;-81
2023/08/08 11:47:10;;;;;;;2.90;1.53;;;;;;;;;;5046313;28;20502;-80
2023/08/08 11:49:43;;;;;;;8.53;1.87;;;;;;;;;;5043345;28;20447;-80
2023/08/08 11:52:09;;;;;;;1.30;1.00;;;;;;;;;;5045026;28;20473;-81
2023/08/08 11:54:37;;;;;;;2.50;1.77;;;;;;;;;;5044194;28;20447;-80
2023/08/08 11:57:05;;;;;;;2.67;1.60;;;;;;;;;;5042060;28;20467;-81
2023/08/08 11:59:33;;;;;;;3.30;1.37;;;;;;;;;;5044348;28;20453;-81
2023/08/08 12:01:59;;;;;;;1.97;0.97;;;;;;;;;;5045904;28;20480;-81
2023/08/08 12:04:25;;;;;;;2.60;1.37;;;;;;;;;;5044376;28;20449;-80
2023/08/08 12:07:01;;;;;;;3.40;1.30;;;;;;;;;;5045652;28;21024;-81
2023/08/08 12:09:29;;;;;;;2.40;1.43;;;;;;;;;;5047535;28;20471;-80
2023/08/08 12:11:55;;;;;;;6.03;1.20;;;;;;;;;;5047297;28;20487;-80
2023/08/08 12:14:25;;;;;;;3.00;1.30;;;;;;;;;;5044364;28;20464;-80
2023/08/08 12:16:54;;;;;;;2.67;1.63;;;;;;;;;;5045359;28;20479;-81
2023/08/08 12:19:23;;;;;;;4.93;1.70;;;;;;;;;;5047080;28;21081;-81
2023/08/08 12:21:51;;;;;;;1.53;1.30;;;;;;;;;;5045817;28;20846;-80
2023/08/08 12:24:18;;;;;;;2.10;1.20;;;;;;;;;;5048265;28;20453;-80
2023/08/08 12:26:44;;;;;;;3.10;1.20;;;;;;;;;;5048612;28;20466;-80
2023/08/08 12:29:10;;;;;;;4.67;1.63;;;;;;;;;;5044035;28;20459;-80
2023/08/08 12:31:39;;;;;;;6.80;1.97;;;;;;;;;;5046466;28;20472;-80
2023/08/08 12:34:06;;;;;;;2.47;1.87;;;;;;;;;;5042091;28;20449;-80
2023/08/08 12:36:33;;;;;;;6.40;1.87;;;;;;;;;;5045032;28;20451;-80
2023/08/08 12:38:59;;;;;;;3.27;1.70;;;;;;;;;;5044206;28;20477;-80
2023/08/08 12:41:26;;;;;;;4.00;1.70;;;;;;;;;;5043688;28;20456;-81
2023/08/08 12:43:52;;;;;;;2.93;1.30;;;;;;;;;;5046786;28;20946;-80
2023/08/08 12:46:19;;;;;;;2.17;1.50;;;;;;;;;;5039543;28;20491;-80
2023/08/08 12:48:45;;;;;;;8.40;1.93;;;;;;;;;;5045985;28;20464;-81
2023/08/08 12:51:13;;;;;;;3.23;1.70;;;;;;;;;;5043739;28;20443;-80
2023/08/08 12:53:39;;;;;;;4.40;1.07;;;;;;;;;;5044708;28;20488;-80
2023/08/08 12:56:06;;;;;;;5.90;1.60;;;;;;;;;;5045589;28;20468;-80
2023/08/08 12:58:32;;;;;;;5.10;2.10;;;;;;;;;;5045239;28;20472;-80
2023/08/08 13:00:58;;;;;;;7.17;1.50;;;;;;;;;;5045044;28;20460;-80
2023/08/08 13:03:24;;;;;;;3.73;1.77;;;;;;;;;;5041525;28;20475;-80
2023/08/08 13:05:52;;;;;;;5.23;1.67;;;;;;;;;;5046012;28;20491;-80
2023/08/08 13:08:19;;;;;;;4.67;1.10;;;;;;;;;;5045790;28;20471;-81
2023/08/08 13:10:46;;;;;;;3.60;1.20;;;;;;;;;;5057526;28;20537;-80
2023/08/08 13:13:13;;;;;;;6.57;2.13;;;;;;;;;;5043483;28;20540;-80
2023/08/08 13:15:39;;;;;;;2.30;1.00;;;;;;;;;;5043124;28;20457;-80
2023/08/08 13:18:06;;;;;;;8.60;2.27;;;;;;;;;;5045415;28;20859;-81
2023/08/08 13:20:32;;;;;;;6.10;1.50;;;;;;;;;;5045792;28;20460;-81
2023/08/08 13:22:59;;;;;;;4.43;1.20;;;;;;;;;;5044643;28;20472;-81
2023/08/08 13:25:26;;;;;;;4.73;1.33;;;;;;;;;;5044979;28;20498;-81
2023/08/08 13:27:53;;;;;;;4.53;1.47;;;;;;;;;;5045062;28;20494;-81
2023/08/08 13:30:21;;;;;;;4.73;2.10;;;;;;;;;;5043147;28;20974;-81
2023/08/08 13:32:48;;;;;;;4.90;1.37;;;;;;;;;;5042802;28;20496;-80
2023/08/08 13:35:14;;;;;;;4.83;1.53;;;;;;;;;;5042229;28;21110;-81
2023/08/08 13:37:41;;;;;;;7.53;1.23;;;;;;;;;;5045383;28;21009;-81
2023/08/08 13:40:08;;;;;;;3.10;1.20;;;;;;;;;;5045469;28;20459;-81
2023/08/08 13:42:36;;;;;;;2.50;1.73;;;;;;;;;;5043777;28;20474;-81
2023/08/08 13:45:03;;;;;;;4.53;1.20;;;;;;;;;;5045671;28;20840;-81
2023/08/08 13:47:29;;;;;;;4.00;1.40;;;;;;;;;;5042122;28;20476;-81
2023/08/08 13:49:56;;;;;;;2.63;1.50;;;;;;;;;;5041627;28;20460;-81
2023/08/08 13:52:24;;;;;;;5.40;1.20;;;;;;;;;;5043684;28;20483;-81
2023/08/08 13:54:51;;;;;;;4.10;1.00;;;;;;;;;;5042612;28;20467;-80
2023/08/08 13:57:17;;;;;;;5.40;1.40;;;;;;;;;;5040994;28;20464;-81
2023/08/08 13:59:45;;;;;;;2.93;1.40;;;;;;;;;;5043093;28;20448;-80
2023/08/08 14:02:11;;;;;;;3.30;1.90;;;;;;;;;;5042043;28;20471;-81
2023/08/08 14:04:38;;;;;;;6.67;1.47;;;;;;;;;;5042766;28;20455;-81
2023/08/08 14:07:04;;;;;;;7.23;1.33;;;;;;;;;;5040861;28;20525;-81
2023/08/08 14:09:34;;;;;;;6.10;1.73;;;;;;;;;;5042211;28;20463;-80
2023/08/08 14:12:01;;;;;;;2.17;1.27;;;;;;;;;;5041737;28;20987;-81
2023/08/08 14:14:27;;;;;;;11.20;1.77;;;;;;;;;;5044073;28;20456;-81
2023/08/08 14:16:55;;;;;;;5.60;1.53;;;;;;;;;;5041536;28;20989;-81
2023/08/08 14:19:21;;;;;;;10.60;1.67;;;;;;;;;;5042367;28;20444;-81
2023/08/08 14:21:47;;;;;;;7.60;1.60;;;;;;;;;;5044120;28;20467;-81
2023/08/08 14:24:14;;;;;;;2.70;1.40;;;;;;;;;;5043447;28;20958;-81
2023/08/08 14:26:41;;;;;;;6.00;1.70;;;;;;;;;;5041973;28;20482;-81
2023/08/08 14:29:07;;;;;;;9.83;2.13;;;;;;;;;;5041684;28;20524;-81
2023/08/08 14:31:34;;;;;;;4.43;1.83;;;;;;;;;;5044528;28;20835;-81
2023/08/08 14:34:01;;;;;;;3.70;1.77;;;;;;;;;;5041673;28;20468;-81
2023/08/08 14:36:28;;;;;;;3.57;1.50;;;;;;;;;;5041277;28;20456;-81
2023/08/08 14:38:54;;;;;;;3.47;1.40;;;;;;;;;;5045063;28;20941;-81